Time;durP1;ratioP1;P1;durP2;ratioP2;P2;SDS_P1;SDS_P2;PMS_P1;PMS_P2;Temp;Humidity;BMP_temperature;BMP_pressure;BME280_temperature;BME280_humidity;BME280_pressure;Samples;Min_cycle;Max_cycle;Signal;HPM_P1;HPM_P2
2023/10/06 00:02:20;;;;;;;12.13;8.57;;;22.80;63.10;;;;;;5034507;28;20463;-78
2023/10/06 00:04:51;;;;;;;9.93;7.60;;;22.80;63.10;;;;;;5034608;28;20479;-78
2023/10/06 00:07:21;;;;;;;10.83;8.03;;;22.70;62.90;;;;;;5025267;28;20439;-77
2023/10/06 00:09:48;;;;;;;12.00;7.30;;;22.70;62.80;;;;;;5033655;28;20994;-78
2023/10/06 00:12:18;;;;;;;9.00;7.40;;;22.70;62.90;;;;;;5033854;28;20530;-77
2023/10/06 00:14:48;;;;;;;10.70;7.50;;;22.70;62.90;;;;;;5029427;28;20526;-79
2023/10/06 00:17:17;;;;;;;11.40;7.57;;;22.70;63.10;;;;;;5033103;28;20505;-77
2023/10/06 00:19:46;;;;;;;10.73;7.47;;;22.70;62.90;;;;;;5029179;28;20459;-78
2023/10/06 00:22:17;;;;;;;8.43;6.60;;;22.70;62.90;;;;;;5033504;28;20456;-78
2023/10/06 00:24:48;;;;;;;10.03;6.67;;;22.70;62.90;;;;;;5033429;28;20563;-78
2023/10/06 00:27:23;;;;;;;9.03;7.40;;;22.70;63.10;;;;;;5032932;28;20454;-78
2023/10/06 00:29:54;;;;;;;9.80;7.83;;;22.60;63.00;;;;;;5034165;28;20458;-78
2023/10/06 00:32:23;;;;;;;10.20;7.20;;;22.60;63.00;;;;;;5045448;28;20512;-78
2023/10/06 00:34:52;;;;;;;9.00;6.83;;;22.60;62.70;;;;;;5047449;28;20462;-78
2023/10/06 00:37:22;;;;;;;8.57;6.50;;;22.60;62.90;;;;;;5038482;28;20471;-77
2023/10/06 00:39:52;;;;;;;8.50;6.93;;;22.60;62.90;;;;;;5033540;28;20481;-77
2023/10/06 00:42:22;;;;;;;12.60;7.27;;;22.60;62.90;;;;;;5025409;28;20427;-78
2023/10/06 00:44:51;;;;;;;10.20;6.73;;;22.60;62.80;;;;;;5032850;28;20555;-78
2023/10/06 00:47:21;;;;;;;8.90;6.97;;;22.60;62.90;;;;;;5033225;28;20501;-78
2023/10/06 00:49:55;;;;;;;7.50;6.50;;;22.60;62.90;;;;;;5030634;28;20447;-79
2023/10/06 00:52:23;;;;;;;10.33;6.90;;;22.60;63.00;;;;;;5026208;28;20446;-78
2023/10/06 00:54:51;;;;;;;8.67;6.80;;;22.60;62.90;;;;;;5041178;28;20459;-80
2023/10/06 00:57:20;;;;;;;9.20;6.73;;;22.60;63.00;;;;;;5033595;28;20514;-77
2023/10/06 00:59:50;;;;;;;7.90;6.70;;;22.60;62.90;;;;;;5033040;28;20424;-78
2023/10/06 01:02:18;;;;;;;8.80;7.00;;;22.50;62.70;;;;;;5032823;28;20997;-77
2023/10/06 01:04:52;;;;;;;10.60;6.50;;;22.50;62.80;;;;;;5032505;28;20471;-78
2023/10/06 01:07:24;;;;;;;10.00;6.40;;;22.60;62.90;;;;;;5033303;28;20447;-78
2023/10/06 01:09:56;;;;;;;9.47;6.37;;;22.60;63.00;;;;;;5032934;28;20534;-78
2023/10/06 01:12:26;;;;;;;7.60;5.53;;;22.50;63.50;;;;;;5030634;28;20470;-78
2023/10/06 01:15:05;;;;;;;7.03;6.10;;;22.50;62.80;;;;;;5027627;28;20460;-76
2023/10/06 01:17:34;;;;;;;7.70;6.07;;;22.50;62.80;;;;;;5031297;28;20479;-78
2023/10/06 01:20:03;;;;;;;9.17;5.63;;;22.50;62.80;;;;;;5032856;28;20447;-79
2023/10/06 01:22:41;;;;;;;7.90;6.20;;;22.50;62.70;;;;;;5032761;28;20486;-78
2023/10/06 01:25:20;;;;;;;8.67;5.53;;;22.50;62.80;;;;;;5032367;28;20475;-78
2023/10/06 01:27:50;;;;;;;6.87;5.80;;;22.50;63.00;;;;;;5032479;28;20472;-78
2023/10/06 01:30:18;;;;;;;6.60;5.40;;;22.50;62.70;;;;;;5032793;28;20443;-77
2023/10/06 01:32:49;;;;;;;9.20;5.83;;;22.50;62.70;;;;;;5031939;28;20790;-79
2023/10/06 01:35:21;;;;;;;8.37;5.83;;;22.50;62.40;;;;;;5031555;28;20491;-77
2023/10/06 01:37:56;;;;;;;8.50;6.03;;;22.50;62.80;;;;;;5031539;28;20439;-78
2023/10/06 01:40:43;;;;;;;7.80;5.70;;;22.50;62.70;;;;;;5031896;28;20447;-78
2023/10/06 01:43:14;;;;;;;6.33;4.90;;;22.50;63.60;;;;;;5032169;28;20413;-77
2023/10/06 01:45:44;;;;;;;9.23;6.40;;;22.50;62.60;;;;;;5030080;28;20475;-78
2023/10/06 01:48:23;;;;;;;6.27;5.17;;;22.50;62.60;;;;;;5031804;28;20505;-78
2023/10/06 01:50:54;;;;;;;7.70;5.60;;;22.50;62.70;;;;;;5032196;28;20439;-78
2023/10/06 01:53:25;;;;;;;8.80;6.00;;;22.40;62.60;;;;;;5035002;28;20411;-80
2023/10/06 01:55:54;;;;;;;8.20;5.30;;;22.40;62.70;;;;;;5037379;28;20973;-81
2023/10/06 01:58:22;;;;;;;9.50;5.93;;;22.40;62.50;;;;;;5037330;28;20432;-80
2023/10/06 02:00:50;;;;;;;7.60;5.60;;;22.40;62.50;;;;;;5032158;28;20523;-78
2023/10/06 02:03:21;;;;;;;5.03;4.27;;;22.40;62.40;;;;;;5031699;28;20462;-78
2023/10/06 02:05:50;;;;;;;8.50;4.87;;;22.40;62.50;;;;;;5031597;28;20861;-78
2023/10/06 02:08:21;;;;;;;7.17;4.83;;;22.40;62.40;;;;;;5031528;28;20522;-78
2023/10/06 02:10:51;;;;;;;5.10;4.60;;;22.40;62.40;;;;;;5032152;28;20455;-79
2023/10/06 02:13:20;;;;;;;8.43;5.30;;;22.40;62.30;;;;;;5031603;28;20439;-78
2023/10/06 02:15:56;;;;;;;7.83;4.70;;;22.40;62.50;;;;;;5025435;28;20483;-78
2023/10/06 02:18:25;;;;;;;6.53;4.80;;;22.40;62.40;;;;;;5031913;28;20461;-77
2023/10/06 02:20:53;;;;;;;6.50;5.10;;;22.40;62.40;;;;;;5031717;28;20447;-77
2023/10/06 02:23:21;;;;;;;6.40;5.53;;;22.40;62.40;;;;;;5031235;28;20467;-77
2023/10/06 02:25:51;;;;;;;6.60;4.63;;;22.30;62.50;;;;;;5023089;28;20567;-77
2023/10/06 02:28:20;;;;;;;5.50;4.53;;;22.30;62.40;;;;;;5030764;28;20456;-76
2023/10/06 02:30:51;;;;;;;7.47;4.27;;;22.30;62.30;;;;;;5031532;28;20451;-79
2023/10/06 02:33:20;;;;;;;6.50;4.60;;;22.40;62.50;;;;;;5031441;28;20478;-78
2023/10/06 02:35:49;;;;;;;7.30;4.60;;;22.30;62.40;;;;;;5031546;28;20467;-78
2023/10/06 02:38:17;;;;;;;6.67;4.90;;;22.30;62.20;;;;;;5031300;28;20443;-79
2023/10/06 02:40:45;;;;;;;8.03;4.40;;;22.30;62.40;;;;;;5031316;28;20454;-78
2023/10/06 02:43:17;;;;;;;6.30;4.70;;;22.30;62.30;;;;;;5031645;28;20571;-78
2023/10/06 02:45:44;;;;;;;7.20;3.97;;;22.30;62.30;;;;;;5033226;28;20529;-78
2023/10/06 02:48:17;;;;;;;7.47;5.10;;;22.30;62.40;;;;;;5031076;28;20516;-79
2023/10/06 02:50:50;;;;;;;5.03;4.20;;;22.30;62.30;;;;;;5034168;28;20426;-78
2023/10/06 02:53:20;;;;;;;6.47;4.00;;;22.30;62.30;;;;;;5033976;28;20440;-79
2023/10/06 02:55:55;;;;;;;5.97;4.23;;;22.30;62.40;;;;;;5035998;28;20459;-78
2023/10/06 02:58:27;;;;;;;7.70;4.23;;;22.30;62.30;;;;;;5035893;28;20946;-78
2023/10/06 03:00:55;;;;;;;7.10;4.53;;;22.30;62.20;;;;;;5035858;28;20447;-78
2023/10/06 03:03:27;;;;;;;7.13;3.80;;;22.30;62.30;;;;;;5035837;28;21010;-79
2023/10/06 03:05:57;;;;;;;4.47;4.07;;;22.30;62.10;;;;;;5036193;28;20479;-78
2023/10/06 03:08:28;;;;;;;4.67;3.63;;;22.30;62.20;;;;;;5040436;28;20471;-78
2023/10/06 03:10:56;;;;;;;6.47;4.20;;;22.30;62.40;;;;;;5035740;28;20451;-78
2023/10/06 03:13:32;;;;;;;4.13;3.80;;;22.20;62.30;;;;;;5035258;28;20459;-77
2023/10/06 03:16:00;;;;;;;5.30;4.07;;;22.20;62.40;;;;;;5028561;28;20446;-78
2023/10/06 03:18:30;;;;;;;4.40;4.00;;;22.20;62.10;;;;;;5026742;28;20441;-78
2023/10/06 03:21:01;;;;;;;4.70;3.97;;;22.20;62.10;;;;;;5034644;28;20410;-77
2023/10/06 03:23:32;;;;;;;6.00;3.97;;;22.20;62.10;;;;;;5034511;28;20523;-77
2023/10/06 03:26:03;;;;;;;5.77;4.17;;;22.20;62.10;;;;;;5034850;28;20485;-78
2023/10/06 03:28:36;;;;;;;6.00;3.40;;;22.20;62.00;;;;;;5039619;28;20446;-78
2023/10/06 03:31:21;;;;;;;5.10;3.40;;;22.20;62.10;;;;;;5045377;28;20431;-80
2023/10/06 03:33:50;;;;;;;4.20;3.80;;;22.20;62.00;;;;;;5041944;28;20435;-78
2023/10/06 03:36:26;;;;;;;4.43;3.53;;;22.20;62.20;;;;;;5034555;28;20435;-78
2023/10/06 03:38:55;;;;;;;5.77;3.57;;;22.20;61.70;;;;;;5034354;28;20470;-80
2023/10/06 03:41:31;;;;;;;5.60;3.17;;;22.20;62.00;;;;;;5026250;28;20450;-78
2023/10/06 03:44:03;;;;;;;6.20;3.30;;;22.20;61.90;;;;;;5034563;28;20821;-78
2023/10/06 03:46:37;;;;;;;3.97;3.10;;;22.20;61.90;;;;;;5034326;28;20499;-77
2023/10/06 03:49:05;;;;;;;5.03;3.50;;;22.20;61.90;;;;;;5034408;28;20439;-76
2023/10/06 03:51:37;;;;;;;4.03;3.27;;;22.20;62.00;;;;;;5034678;28;20520;-77
2023/10/06 03:54:05;;;;;;;4.90;3.40;;;22.20;62.00;;;;;;5034713;28;20542;-78
2023/10/06 03:56:33;;;;;;;4.90;3.47;;;22.20;62.10;;;;;;5035215;28;20444;-77
2023/10/06 03:59:12;;;;;;;4.70;3.67;;;22.20;62.00;;;;;;5034022;28;20447;-78
2023/10/06 04:01:44;;;;;;;4.50;3.40;;;22.10;61.70;;;;;;5026788;28;20443;-77
2023/10/06 04:04:13;;;;;;;3.73;3.10;;;22.10;62.00;;;;;;5034328;28;20455;-78
2023/10/06 04:06:41;;;;;;;4.60;3.20;;;22.10;61.80;;;;;;5034447;28;20530;-78
2023/10/06 04:09:10;;;;;;;3.77;3.23;;;22.10;61.80;;;;;;5034023;28;20542;-77
2023/10/06 04:11:38;;;;;;;4.57;3.70;;;22.20;61.90;;;;;;5034421;28;20530;-77
2023/10/06 04:14:07;;;;;;;4.80;3.63;;;22.20;61.70;;;;;;5033542;28;20919;-78
2023/10/06 04:16:43;;;;;;;4.90;3.47;;;22.20;61.90;;;;;;5026511;28;20439;-77
2023/10/06 04:19:11;;;;;;;10.90;3.73;;;22.10;61.60;;;;;;5033673;28;20447;-77
2023/10/06 04:21:39;;;;;;;3.83;3.43;;;22.10;61.70;;;;;;5033666;28;20535;-77
2023/10/06 04:24:07;;;;;;;5.77;3.40;;;22.10;61.70;;;;;;5033705;28;20570;-80
2023/10/06 04:26:36;;;;;;;3.40;3.10;;;22.10;61.80;;;;;;5036428;28;20978;-79
2023/10/06 04:29:05;;;;;;;4.03;3.20;;;22.10;61.70;;;;;;5033227;28;20570;-78
2023/10/06 04:31:36;;;;;;;3.60;3.30;;;22.10;61.80;;;;;;5033602;28;20446;-77
2023/10/06 04:34:05;;;;;;;7.83;3.33;;;22.10;61.70;;;;;;5033243;28;20513;-78
2023/10/06 04:36:33;;;;;;;8.10;4.17;;;22.10;61.70;;;;;;5032819;28;20527;-78
2023/10/06 04:39:01;;;;;;;6.20;3.43;;;22.10;61.70;;;;;;5025932;28;20468;-77
2023/10/06 04:41:30;;;;;;;4.23;3.57;;;22.10;61.70;;;;;;5032962;28;20505;-77
2023/10/06 04:44:02;;;;;;;5.67;3.80;;;22.10;61.50;;;;;;5033259;28;20799;-78
2023/10/06 04:46:30;;;;;;;4.70;3.20;;;22.00;61.70;;;;;;5032664;28;20446;-79
2023/10/06 04:49:00;;;;;;;4.73;2.80;;;22.00;61.60;;;;;;5033027;28;20440;-80
2023/10/06 04:51:28;;;;;;;5.17;3.30;;;22.00;61.60;;;;;;5032927;28;20479;-79
2023/10/06 04:53:57;;;;;;;4.97;3.30;;;22.00;61.50;;;;;;5026080;28;20464;-79
2023/10/06 04:56:32;;;;;;;3.63;2.90;;;22.00;61.50;;;;;;5032188;28;20452;-78
2023/10/06 04:59:00;;;;;;;3.97;3.40;;;22.00;61.60;;;;;;5032864;28;20443;-78
2023/10/06 05:01:30;;;;;;;2.97;2.60;;;22.00;61.50;;;;;;5033063;28;20452;-78
2023/10/06 05:04:05;;;;;;;3.07;2.77;;;22.00;61.70;;;;;;5032999;28;20517;-80
2023/10/06 05:06:33;;;;;;;5.03;3.03;;;22.00;61.60;;;;;;5019829;28;20450;-79
2023/10/06 05:09:02;;;;;;;3.57;2.60;;;22.00;61.60;;;;;;5032450;28;20490;-79
2023/10/06 05:11:32;;;;;;;4.10;2.80;;;22.00;61.70;;;;;;5032612;28;20474;-80
2023/10/06 05:14:01;;;;;;;4.43;2.87;;;22.00;61.60;;;;;;5032177;28;20974;-78
2023/10/06 05:16:29;;;;;;;3.67;3.10;;;22.00;61.50;;;;;;5025339;28;20467;-79
2023/10/06 05:18:57;;;;;;;5.20;3.10;;;22.00;61.60;;;;;;5032571;28;20444;-77
2023/10/06 05:21:27;;;;;;;3.57;2.67;;;22.00;61.60;;;;;;5032530;28;20539;-79
2023/10/06 05:23:55;;;;;;;5.00;3.50;;;22.00;61.50;;;;;;5032190;28;20479;-77
2023/10/06 05:26:24;;;;;;;3.23;2.87;;;22.00;61.70;;;;;;5032133;28;20521;-82
2023/10/06 05:28:52;;;;;;;3.90;3.00;;;22.00;61.50;;;;;;5031937;28;20467;-81
2023/10/06 05:31:22;;;;;;;4.30;3.07;;;22.00;61.50;;;;;;5032283;28;20448;-80
2023/10/06 05:33:51;;;;;;;4.17;2.60;;;22.00;61.50;;;;;;5033178;28;20450;-82
2023/10/06 05:36:20;;;;;;;4.90;3.30;;;22.00;61.40;;;;;;5026010;28;20445;-80
2023/10/06 05:38:50;;;;;;;4.47;2.90;;;22.00;61.40;;;;;;5033788;28;20475;-83
2023/10/06 05:41:18;;;;;;;3.07;2.50;;;22.00;61.30;;;;;;5033791;28;20486;-81
2023/10/06 05:43:48;;;;;;;3.80;2.90;;;21.90;61.30;;;;;;5034314;28;20478;-78
2023/10/06 05:46:17;;;;;;;4.47;2.73;;;22.00;61.40;;;;;;5031906;28;20439;-79
2023/10/06 05:48:45;;;;;;;3.90;2.70;;;22.00;61.20;;;;;;5031550;28;20475;-78
2023/10/06 05:51:18;;;;;;;4.73;3.17;;;22.00;61.20;;;;;;5031706;28;20519;-79
2023/10/06 05:53:48;;;;;;;4.57;2.83;;;22.00;61.40;;;;;;5031777;28;20452;-79
2023/10/06 05:56:20;;;;;;;3.73;2.80;;;22.00;61.20;;;;;;5031793;28;21037;-79
2023/10/06 05:58:48;;;;;;;4.23;3.10;;;22.00;61.10;;;;;;5031951;28;20498;-78
2023/10/06 06:01:18;;;;;;;3.93;2.67;;;22.00;61.10;;;;;;5031609;28;20467;-80
2023/10/06 06:03:49;;;;;;;3.73;2.90;;;22.00;61.20;;;;;;5031215;28;20443;-78
2023/10/06 06:06:22;;;;;;;7.60;3.20;;;22.00;61.20;;;;;;5026716;28;20479;-78
2023/10/06 06:08:51;;;;;;;5.67;2.90;;;22.00;61.30;;;;;;5031727;28;20467;-78
2023/10/06 06:11:21;;;;;;;2.93;2.63;;;22.00;61.20;;;;;;5031230;28;20939;-79
2023/10/06 06:13:50;;;;;;;3.53;2.80;;;22.00;61.20;;;;;;5031799;28;20539;-79
2023/10/06 06:16:34;;;;;;;5.47;2.53;;;22.00;61.20;;;;;;5031420;28;20463;-77
2023/10/06 06:19:05;;;;;;;7.47;2.70;;;22.00;60.90;;;;;;5031444;28;20961;-77
2023/10/06 06:21:34;;;;;;;4.37;2.93;;;22.00;61.20;;;;;;5031170;28;20451;-79
2023/10/06 06:24:05;;;;;;;4.30;2.70;;;22.00;60.90;;;;;;5030239;28;20910;-78
2023/10/06 06:26:36;;;;;;;3.43;2.70;;;22.00;61.10;;;;;;5032889;28;20455;-79
2023/10/06 06:29:04;;;;;;;4.17;2.63;;;22.00;60.90;;;;;;5048969;28;20467;-82
2023/10/06 06:31:33;;;;;;;5.57;2.60;;;22.00;61.00;;;;;;5051828;28;20439;-82
2023/10/06 06:34:04;;;;;;;3.00;2.53;;;22.00;61.00;;;;;;5051435;28;20462;-79
2023/10/06 06:36:32;;;;;;;4.17;2.73;;;22.00;61.20;;;;;;5039619;28;20444;-81
2023/10/06 06:39:00;;;;;;;3.20;2.60;;;22.00;61.50;;;;;;5034464;28;20509;-81
2023/10/06 06:41:28;;;;;;;4.53;2.50;;;22.00;61.20;;;;;;5032668;28;20993;-77
2023/10/06 06:43:58;;;;;;;3.17;2.37;;;22.00;60.90;;;;;;5031796;28;20919;-78
2023/10/06 06:46:29;;;;;;;7.50;3.47;;;22.00;60.90;;;;;;5032423;28;20921;-79
2023/10/06 06:48:59;;;;;;;4.57;2.90;;;22.00;61.00;;;;;;5033188;28;20541;-79
2023/10/06 06:51:30;;;;;;;5.97;2.97;;;22.00;60.90;;;;;;5033462;28;20447;-79
2023/10/06 06:53:59;;;;;;;3.33;2.90;;;22.00;61.10;;;;;;5033214;28;20477;-81
2023/10/06 06:56:28;;;;;;;5.60;2.97;;;22.00;61.30;;;;;;5032821;28;20455;-79
2023/10/06 06:59:00;;;;;;;5.27;2.87;;;22.00;61.40;;;;;;5023399;28;20490;-78
2023/10/06 07:01:29;;;;;;;3.00;2.57;;;22.00;61.10;;;;;;5031386;28;20451;-77
2023/10/06 07:04:00;;;;;;;4.10;2.67;;;22.00;61.10;;;;;;5031521;28;20490;-79
2023/10/06 07:06:30;;;;;;;3.30;2.60;;;22.00;61.20;;;;;;5024403;28;20476;-80
2023/10/06 07:08:59;;;;;;;3.23;2.10;;;22.10;61.00;;;;;;5030575;28;20467;-77
2023/10/06 07:11:28;;;;;;;3.23;2.80;;;22.10;61.20;;;;;;5032933;28;20447;-78
2023/10/06 07:13:56;;;;;;;3.50;2.20;;;22.10;60.90;;;;;;5036145;28;20451;-79
2023/10/06 07:16:27;;;;;;;4.03;2.63;;;22.10;61.00;;;;;;5023976;28;20459;-78
2023/10/06 07:18:55;;;;;;;4.13;2.90;;;22.10;61.00;;;;;;5027946;28;20447;-77
2023/10/06 07:21:23;;;;;;;2.97;2.50;;;22.10;61.10;;;;;;5023433;28;20813;-77
2023/10/06 07:23:54;;;;;;;2.60;2.10;;;22.10;61.00;;;;;;5022580;28;20436;-78
2023/10/06 07:26:22;;;;;;;2.83;2.40;;;22.10;61.00;;;;;;5032441;28;20534;-77
2023/10/06 07:28:52;;;;;;;2.93;2.73;;;22.10;61.00;;;;;;5029562;28;20490;-78
2023/10/06 07:31:20;;;;;;;6.63;3.00;;;22.10;61.20;;;;;;5032826;28;20439;-77
2023/10/06 07:33:52;;;;;;;3.67;2.73;;;22.10;61.10;;;;;;5029990;28;20781;-77
2023/10/06 07:36:20;;;;;;;2.60;2.30;;;22.20;61.20;;;;;;5029118;28;20458;-77
2023/10/06 07:38:49;;;;;;;5.40;2.63;;;22.20;61.30;;;;;;5032876;28;20534;-76
2023/10/06 07:41:23;;;;;;;5.60;2.90;;;22.20;61.10;;;;;;5034947;28;20509;-76
2023/10/06 07:43:51;;;;;;;3.23;2.57;;;22.20;61.10;;;;;;5027084;28;20439;-78
2023/10/06 07:46:19;;;;;;;4.20;2.57;;;22.30;61.20;;;;;;5035799;28;20468;-79
2023/10/06 07:48:47;;;;;;;2.60;2.40;;;22.40;61.10;;;;;;5037129;28;20479;-78
2023/10/06 07:51:16;;;;;;;3.00;2.30;;;22.40;60.70;;;;;;5038213;28;20450;-79
2023/10/06 07:53:44;;;;;;;4.87;2.93;;;22.40;60.80;;;;;;5037337;28;20471;-77
2023/10/06 07:56:14;;;;;;;3.33;2.60;;;22.50;60.90;;;;;;5038611;28;20471;-79
2023/10/06 07:58:43;;;;;;;3.27;2.90;;;22.50;60.70;;;;;;5039999;28;20422;-81
2023/10/06 08:01:12;;;;;;;2.90;2.30;;;22.50;60.80;;;;;;5041386;28;20447;-78
2023/10/06 08:03:42;;;;;;;3.03;2.50;;;22.50;60.70;;;;;;5041568;28;20538;-78
2023/10/06 08:06:12;;;;;;;2.63;2.20;;;22.50;60.70;;;;;;5039322;28;20447;-79
2023/10/06 08:08:41;;;;;;;4.50;2.90;;;22.60;60.70;;;;;;5029065;28;20517;-78
2023/10/06 08:11:13;;;;;;;3.40;2.20;;;22.50;60.80;;;;;;5036175;28;20509;-80
2023/10/06 08:13:42;;;;;;;3.50;2.50;;;22.50;60.70;;;;;;5027974;28;20469;-82
2023/10/06 08:16:12;;;;;;;2.60;2.37;;;22.60;60.70;;;;;;5027123;28;20418;-80
2023/10/06 08:18:44;;;;;;;2.50;2.17;;;22.70;60.80;;;;;;5028086;28;20443;-81
2023/10/06 08:21:20;;;;;;;1.90;1.80;;;22.70;60.60;;;;;;5036284;28;20493;-80
2023/10/06 08:23:55;;;;;;;3.07;2.00;;;22.70;60.50;;;;;;5036225;28;20443;-77
2023/10/06 08:26:23;;;;;;;4.70;2.50;;;22.70;60.50;;;;;;5037248;28;20466;-79
2023/10/06 08:28:53;;;;;;;2.77;2.17;;;22.60;60.50;;;;;;5039693;28;20471;-79
2023/10/06 08:31:24;;;;;;;3.20;2.17;;;22.60;60.40;;;;;;5041046;28;20512;-79
2023/10/06 08:34:01;;;;;;;3.67;2.00;;;22.60;60.40;;;;;;5042697;28;20443;-80
2023/10/06 08:36:33;;;;;;;4.57;2.50;;;22.60;60.40;;;;;;5044041;28;20448;-81
2023/10/06 08:39:17;;;;;;;2.43;2.23;;;22.60;60.40;;;;;;5046250;28;20443;-80
2023/10/06 08:41:46;;;;;;;2.40;2.10;;;22.60;60.40;;;;;;5040121;28;20501;-79
2023/10/06 08:44:18;;;;;;;5.23;2.70;;;22.60;60.30;;;;;;5041157;28;20494;-80
2023/10/06 08:46:51;;;;;;;2.80;2.20;;;22.60;60.40;;;;;;5041064;28;20451;-80
2023/10/06 08:49:21;;;;;;;5.23;2.50;;;22.70;60.50;;;;;;5042512;28;20550;-81
2023/10/06 08:51:59;;;;;;;4.67;2.60;;;22.70;60.30;;;;;;5042549;28;20534;-80
2023/10/06 08:54:34;;;;;;;2.50;2.07;;;22.80;60.30;;;;;;5039662;28;20469;-80
2023/10/06 08:57:16;;;;;;;3.10;2.17;;;22.80;60.20;;;;;;5037320;28;20514;-81
2023/10/06 09:00:00;;;;;;;3.57;2.47;;;22.80;60.10;;;;;;5035123;28;20437;-81
2023/10/06 09:02:29;;;;;;;4.30;2.57;;;22.80;60.20;;;;;;5037961;28;20475;-78
2023/10/06 09:05:01;;;;;;;2.93;2.23;;;22.80;60.10;;;;;;5040268;28;20456;-79
2023/10/06 09:07:35;;;;;;;4.53;2.67;;;22.80;60.30;;;;;;5031470;28;20535;-79
2023/10/06 09:10:22;;;;;;;2.97;2.70;;;22.80;60.20;;;;;;5034770;28;20466;-81
2023/10/06 09:13:04;;;;;;;6.80;3.20;;;22.80;60.40;;;;;;5029013;28;20444;-81
2023/10/06 09:15:36;;;;;;;3.60;2.43;;;22.80;60.40;;;;;;5031538;28;20494;-78
2023/10/06 09:18:19;;;;;;;5.80;3.00;;;22.80;60.40;;;;;;5039834;28;20444;-82
2023/10/06 09:24:03;;;;;;;3.50;3.20;;;22.80;60.50;;;;;;5038185;28;20479;-83
2023/10/06 09:26:50;;;;;;;5.87;3.37;;;22.90;60.60;;;;;;5038518;28;20442;-83
2023/10/06 09:29:47;;;;;;;5.70;3.10;;;23.00;60.60;;;;;;5036923;28;20474;-83
2023/10/06 09:32:49;;;;;;;5.03;3.30;;;23.00;60.30;;;;;;5036150;28;20489;-83
2023/10/06 09:35:44;;;;;;;2.83;2.60;;;23.00;60.40;;;;;;5036048;28;20467;-83
2023/10/06 09:38:22;;;;;;;3.87;3.00;;;23.00;60.20;;;;;;5035773;28;20458;-82
2023/10/06 09:40:59;;;;;;;4.80;3.13;;;23.00;60.30;;;;;;5049846;28;20447;-82
2023/10/06 09:43:41;;;;;;;6.10;2.87;;;23.00;60.20;;;;;;5051648;28;20439;-85
2023/10/06 09:46:15;;;;;;;4.70;2.93;;;23.10;60.30;;;;;;5047291;28;20435;-80
2023/10/06 09:48:43;;;;;;;3.83;2.70;;;23.10;60.20;;;;;;5035740;28;20490;-81
2023/10/06 09:51:14;;;;;;;3.30;3.00;;;23.10;60.20;;;;;;5033894;28;20471;-79
2023/10/06 09:53:47;;;;;;;5.20;3.07;;;23.10;60.20;;;;;;5034104;28;21000;-79
2023/10/06 09:56:25;;;;;;;5.00;3.10;;;23.10;60.30;;;;;;5024304;28;20466;-82
2023/10/06 09:59:13;;;;;;;3.57;2.53;;;23.10;60.30;;;;;;5029819;28;20443;-80
2023/10/06 10:01:45;;;;;;;4.63;3.10;;;23.10;60.30;;;;;;5029357;28;20448;-80
2023/10/06 10:04:20;;;;;;;4.83;2.83;;;23.20;60.40;;;;;;5033850;28;20462;-81
2023/10/06 10:06:53;;;;;;;5.67;3.20;;;23.20;60.20;;;;;;5027638;28;20446;-81
2023/10/06 10:09:43;;;;;;;8.53;3.57;;;23.20;60.10;;;;;;5033870;28;20459;-83
2023/10/06 10:12:23;;;;;;;4.00;2.87;;;23.20;60.10;;;;;;5030720;28;20451;-82
2023/10/06 10:15:24;;;;;;;4.67;3.37;;;23.30;60.40;;;;;;5028279;28;20474;-85
2023/10/06 10:20:48;;;;;;;6.00;3.77;;;23.20;60.40;;;;;;5032785;28;20446;-84
2023/10/06 10:23:37;;;;;;;5.40;3.30;;;23.20;60.40;;;;;;5033597;28;20454;-84
2023/10/06 10:26:37;;;;;;;5.57;3.27;;;23.20;60.50;;;;;;5033901;28;20454;-81
2023/10/06 10:29:33;;;;;;;4.40;4.00;;;23.20;60.40;;;;;;5027868;28;20508;-81
2023/10/06 10:32:14;;;;;;;3.70;3.00;;;23.30;60.30;;;;;;5030683;28;21048;-81
2023/10/06 10:35:08;;;;;;;6.20;3.97;;;23.30;60.40;;;;;;5031336;28;20470;-80
2023/10/06 10:37:55;;;;;;;4.73;3.37;;;23.30;60.40;;;;;;5026032;28;20455;-81
2023/10/06 10:40:31;;;;;;;6.03;3.47;;;23.30;60.40;;;;;;5034057;28;20450;-81
2023/10/06 10:43:16;;;;;;;4.50;3.37;;;23.30;60.50;;;;;;5044896;28;20461;-81
2023/10/06 10:46:18;;;;;;;3.87;3.53;;;23.30;60.60;;;;;;5045112;28;20459;-81
2023/10/06 10:49:20;;;;;;;4.60;3.37;;;23.50;60.80;;;;;;5033328;28;20439;-81
2023/10/06 10:51:53;;;;;;;3.60;3.30;;;23.60;60.20;;;;;;5034799;28;20442;-80
2023/10/06 10:54:34;;;;;;;4.87;3.30;;;23.70;59.90;;;;;;5040143;28;20445;-81
2023/10/06 10:57:11;;;;;;;4.50;3.60;;;23.90;60.20;;;;;;5026133;28;20507;-81
2023/10/06 11:00:20;;;;;;;6.03;3.70;;;24.10;60.20;;;;;;5038731;28;20418;-81
2023/10/06 11:03:11;;;;;;;5.57;3.33;;;24.30;59.60;;;;;;5033857;28;20451;-81
2023/10/06 11:05:59;;;;;;;4.23;3.83;;;24.60;59.40;;;;;;5038833;28;20554;-80
2023/10/06 11:08:39;;;;;;;4.07;3.43;;;24.90;58.60;;;;;;5037196;28;20447;-81
2023/10/06 11:11:19;;;;;;;5.33;3.80;;;25.00;58.40;;;;;;5033847;28;20556;-81
2023/10/06 11:14:06;;;;;;;5.10;3.57;;;25.10;58.00;;;;;;5026945;28;20989;-81
2023/10/06 11:16:42;;;;;;;6.20;3.63;;;25.00;58.40;;;;;;5041011;28;20538;-82
2023/10/06 11:19:15;;;;;;;3.63;3.30;;;24.90;58.40;;;;;;5033758;28;20439;-77
2023/10/06 11:21:48;;;;;;;13.10;4.90;;;24.90;59.00;;;;;;5030868;28;20462;-76
2023/10/06 11:24:33;;;;;;;7.47;5.10;;;24.20;61.50;;;;;;5020557;28;20538;-77
2023/10/06 11:27:12;;;;;;;12.87;5.70;;;23.30;64.10;;;;;;5030282;28;20424;-77
2023/10/06 11:29:40;;;;;;;9.93;5.60;;;22.70;66.40;;;;;;5032101;28;20414;-78
2023/10/06 11:32:09;;;;;;;7.07;4.97;;;22.30;68.00;;;;;;5034344;28;20475;-78
2023/10/06 11:34:36;;;;;;;7.43;5.03;;;22.20;69.70;;;;;;5034745;28;20551;-76
2023/10/06 11:37:07;;;;;;;9.07;4.37;;;22.20;69.50;;;;;;5034741;28;20447;-78
2023/10/06 11:39:35;;;;;;;10.50;5.93;;;22.10;68.80;;;;;;5034346;28;20447;-76
2023/10/06 11:42:30;;;;;;;10.20;5.60;;;22.00;70.00;;;;;;5034433;28;20432;-76
2023/10/06 11:44:59;;;;;;;14.17;5.80;;;21.70;71.90;;;;;;5034412;28;20467;-77
2023/10/06 11:47:41;;;;;;;8.70;5.10;;;21.50;72.20;;;;;;5034332;28;20531;-77
2023/10/06 11:50:24;;;;;;;8.83;5.30;;;21.10;74.10;;;;;;5028385;28;20534;-77
2023/10/06 11:52:55;;;;;;;17.87;5.47;;;21.10;75.40;;;;;;5033525;28;20443;-76
2023/10/06 11:55:25;;;;;;;11.20;5.00;;;21.20;76.00;;;;;;5034985;28;20451;-76
2023/10/06 11:57:54;;;;;;;11.10;5.00;;;21.00;76.90;;;;;;5034218;28;20428;-78
2023/10/06 12:00:45;;;;;;;8.43;4.10;;;20.90;77.70;;;;;;5032460;28;20832;-78
2023/10/06 12:03:16;;;;;;;14.40;3.73;;;21.40;81.40;;;;;;5027828;28;20417;-80
2023/10/06 12:05:55;;;;;;;5.50;3.30;;;22.10;76.10;;;;;;5035781;28;20887;-80
2023/10/06 12:08:25;;;;;;;7.47;3.77;;;22.80;73.30;;;;;;5020504;28;20454;-81
2023/10/06 12:10:53;;;;;;;6.03;3.07;;;23.40;71.10;;;;;;5017837;28;20475;-79
2023/10/06 12:13:21;;;;;;;8.87;3.30;;;23.70;68.60;;;;;;5028202;28;20930;-79
2023/10/06 12:15:49;;;;;;;6.43;3.30;;;24.00;67.30;;;;;;5028559;28;21313;-79
2023/10/06 12:18:17;;;;;;;6.83;2.70;;;24.30;66.00;;;;;;5023797;28;20492;-80
2023/10/06 12:20:46;;;;;;;7.40;3.30;;;24.60;65.10;;;;;;5025377;28;20506;-80
2023/10/06 12:23:14;;;;;;;4.73;2.80;;;24.80;64.40;;;;;;5025101;28;20507;-79
2023/10/06 12:25:43;;;;;;;7.10;2.93;;;25.10;64.00;;;;;;5029521;28;20467;-79
2023/10/06 12:28:16;;;;;;;5.80;2.70;;;25.50;62.80;;;;;;5032498;28;20510;-80
2023/10/06 12:30:44;;;;;;;5.27;2.67;;;26.10;62.60;;;;;;5037555;28;20472;-79
2023/10/06 12:33:13;;;;;;;3.87;2.67;;;27.30;61.80;;;;;;5041565;28;20453;-80
2023/10/06 12:35:42;;;;;;;5.33;2.80;;;28.30;57.30;;;;;;5049823;28;20437;-80
2023/10/06 12:38:14;;;;;;;5.10;2.77;;;28.90;55.50;;;;;;5037358;28;20498;-78
2023/10/06 12:40:46;;;;;;;5.20;2.73;;;29.00;54.20;;;;;;5034232;28;20443;-80
2023/10/06 12:43:16;;;;;;;3.70;2.23;;;29.40;54.20;;;;;;5033088;28;20506;-80
2023/10/06 12:45:44;;;;;;;4.37;2.97;;;29.80;53.20;;;;;;5025302;28;20478;-79
2023/10/06 12:48:13;;;;;;;4.50;2.33;;;29.90;52.00;;;;;;5048401;28;20474;-80
2023/10/06 12:50:42;;;;;;;2.83;2.50;;;29.60;51.10;;;;;;5035252;28;20453;-80
2023/10/06 12:53:11;;;;;;;3.60;2.40;;;29.30;51.60;;;;;;5052852;28;20399;-80
2023/10/06 12:55:41;;;;;;;5.40;2.90;;;29.00;52.10;;;;;;5037644;28;20439;-80
2023/10/06 12:58:15;;;;;;;3.13;2.83;;;28.80;52.70;;;;;;5043360;28;20449;-80
2023/10/06 13:00:43;;;;;;;3.17;2.70;;;28.60;53.10;;;;;;5034494;28;20439;-78
2023/10/06 13:03:16;;;;;;;3.47;2.53;;;28.40;53.60;;;;;;5033214;28;20414;-78
2023/10/06 13:05:45;;;;;;;4.87;2.80;;;28.30;53.80;;;;;;5034189;28;20455;-79
2023/10/06 13:08:16;;;;;;;4.40;2.60;;;28.20;54.30;;;;;;5020897;28;20427;-80
2023/10/06 13:10:44;;;;;;;4.30;2.40;;;28.10;54.30;;;;;;5016535;28;20530;-79
2023/10/06 13:13:16;;;;;;;5.83;2.53;;;28.10;54.70;;;;;;5024811;28;20471;-78
2023/10/06 13:15:46;;;;;;;2.80;2.50;;;28.10;54.70;;;;;;5035360;28;20433;-79
2023/10/06 13:18:25;;;;;;;4.00;2.40;;;28.30;54.80;;;;;;5029337;28;20952;-78
2023/10/06 13:20:53;;;;;;;2.43;2.23;;;28.20;54.40;;;;;;5014255;28;20442;-78